sensor_id;sensor_type;location;lat;lon;timestamp;P1;durP1;ratioP1;P2;durP2;ratioP2
61009;SDS011;46897;55.340;86.082;2022-11-20T00:02:11;14.77;;;6.38;;
61009;SDS011;46897;55.340;86.082;2022-11-20T00:04:41;20.73;;;7.43;;
61009;SDS011;46897;55.340;86.082;2022-11-20T00:07:10;17.50;;;6.28;;
61009;SDS011;46897;55.340;86.082;2022-11-20T00:09:40;19.90;;;7.75;;
61009;SDS011;46897;55.340;86.082;2022-11-20T00:12:09;14.05;;;5.28;;
61009;SDS011;46897;55.340;86.082;2022-11-20T00:14:38;20.50;;;5.70;;
61009;SDS011;46897;55.340;86.082;2022-11-20T00:17:09;20.85;;;6.97;;
61009;SDS011;46897;55.340;86.082;2022-11-20T00:19:38;16.35;;;6.22;;
61009;SDS011;46897;55.340;86.082;2022-11-20T00:22:08;11.70;;;5.65;;
61009;SDS011;46897;55.340;86.082;2022-11-20T00:24:37;13.77;;;4.97;;
61009;SDS011;46897;55.340;86.082;2022-11-20T00:27:08;11.43;;;4.68;;
61009;SDS011;46897;55.340;86.082;2022-11-20T00:29:37;9.68;;;4.63;;
61009;SDS011;46897;55.340;86.082;2022-11-20T00:32:07;9.73;;;4.55;;
61009;SDS011;46897;55.340;86.082;2022-11-20T00:34:37;15.23;;;5.75;;
61009;SDS011;46897;55.340;86.082;2022-11-20T00:37:06;13.48;;;5.47;;
61009;SDS011;46897;55.340;86.082;2022-11-20T00:39:36;8.88;;;4.30;;
61009;SDS011;46897;55.340;86.082;2022-11-20T00:42:05;15.82;;;6.90;;
61009;SDS011;46897;55.340;86.082;2022-11-20T00:44:34;17.45;;;7.80;;
61009;SDS011;46897;55.340;86.082;2022-11-20T00:47:03;15.13;;;6.57;;
61009;SDS011;46897;55.340;86.082;2022-11-20T00:49:34;13.13;;;5.00;;
61009;SDS011;46897;55.340;86.082;2022-11-20T00:52:03;15.18;;;5.28;;
61009;SDS011;46897;55.340;86.082;2022-11-20T00:54:32;10.70;;;4.95;;
61009;SDS011;46897;55.340;86.082;2022-11-20T00:57:02;10.85;;;4.53;;
61009;SDS011;46897;55.340;86.082;2022-11-20T00:59:31;16.25;;;3.83;;
61009;SDS011;46897;55.340;86.082;2022-11-20T01:02:00;19.65;;;7.95;;
61009;SDS011;46897;55.340;86.082;2022-11-20T01:04:29;14.50;;;5.47;;
61009;SDS011;46897;55.340;86.082;2022-11-20T01:07:00;17.60;;;5.85;;
61009;SDS011;46897;55.340;86.082;2022-11-20T01:09:29;17.85;;;7.40;;
61009;SDS011;46897;55.340;86.082;2022-11-20T01:11:58;11.10;;;4.45;;
61009;SDS011;46897;55.340;86.082;2022-11-20T01:14:27;15.02;;;7.13;;
61009;SDS011;46897;55.340;86.082;2022-11-20T01:16:57;10.70;;;2.95;;
61009;SDS011;46897;55.340;86.082;2022-11-20T01:19:26;15.25;;;5.10;;
61009;SDS011;46897;55.340;86.082;2022-11-20T01:21:55;26.10;;;9.07;;
61009;SDS011;46897;55.340;86.082;2022-11-20T01:24:26;44.58;;;12.52;;
61009;SDS011;46897;55.340;86.082;2022-11-20T01:26:55;42.40;;;12.38;;
61009;SDS011;46897;55.340;86.082;2022-11-20T01:29:24;33.10;;;9.05;;
61009;SDS011;46897;55.340;86.082;2022-11-20T01:31:53;34.15;;;11.05;;
61009;SDS011;46897;55.340;86.082;2022-11-20T01:34:22;24.40;;;9.18;;
61009;SDS011;46897;55.340;86.082;2022-11-20T01:36:52;34.40;;;10.45;;
61009;SDS011;46897;55.340;86.082;2022-11-20T01:39:22;43.05;;;10.98;;
61009;SDS011;46897;55.340;86.082;2022-11-20T01:41:54;63.50;;;15.15;;
61009;SDS011;46897;55.340;86.082;2022-11-20T01:44:56;38.17;;;11.30;;
61009;SDS011;46897;55.340;86.082;2022-11-20T01:47:28;35.10;;;8.25;;
61009;SDS011;46897;55.340;86.082;2022-11-20T01:50:02;63.92;;;13.70;;
61009;SDS011;46897;55.340;86.082;2022-11-20T01:52:36;50.45;;;10.32;;
61009;SDS011;46897;55.340;86.082;2022-11-20T01:55:10;65.20;;;13.73;;
61009;SDS011;46897;55.340;86.082;2022-11-20T01:57:45;36.38;;;9.25;;
61009;SDS011;46897;55.340;86.082;2022-11-20T02:00:17;54.90;;;16.88;;
61009;SDS011;46897;55.340;86.082;2022-11-20T02:02:48;40.38;;;10.77;;
61009;SDS011;46897;55.340;86.082;2022-11-20T02:05:21;44.20;;;13.35;;
61009;SDS011;46897;55.340;86.082;2022-11-20T02:07:55;52.88;;;14.88;;
61009;SDS011;46897;55.340;86.082;2022-11-20T02:10:26;43.65;;;12.50;;
61009;SDS011;46897;55.340;86.082;2022-11-20T02:12:58;39.50;;;10.45;;
61009;SDS011;46897;55.340;86.082;2022-11-20T02:15:45;47.35;;;13.80;;
61009;SDS011;46897;55.340;86.082;2022-11-20T02:18:14;31.45;;;10.73;;
61009;SDS011;46897;55.340;86.082;2022-11-20T02:20:47;25.75;;;7.47;;
61009;SDS011;46897;55.340;86.082;2022-11-20T02:23:19;17.75;;;6.35;;
